Time;durP1;ratioP1;P1;durP2;ratioP2;P2;SDS_P1;SDS_P2;PMS_P1;PMS_P2;Temp;Humidity;BMP_temperature;BMP_pressure;BME280_temperature;BME280_humidity;BME280_pressure;Samples;Min_cycle;Max_cycle;Signal;HPM_P1;HPM_P2
2021/11/11 00:00:49;;;;;;;19.88;14.00;;;;;;;;;;4967734;28;20233;-77
2021/11/11 00:03:16;;;;;;;17.65;15.38;;;;;;;;;;4971189;28;20201;-77
2021/11/11 00:05:44;;;;;;;20.00;15.07;;;;;;;;;;4975252;28;20233;-77
2021/11/11 00:08:11;;;;;;;18.92;13.45;;;;;;;;;;4966634;28;20209;-77
2021/11/11 00:10:48;;;;;;;15.65;12.93;;;;;;;;;;4959718;28;20194;-77
2021/11/11 00:13:19;;;;;;;19.98;15.35;;;;;;;;;;4967455;28;20209;-76
2021/11/11 00:15:46;;;;;;;21.02;14.77;;;;;;;;;;4967992;28;20304;-76
2021/11/11 00:18:15;;;;;;;17.42;13.77;;;;;;;;;;4963804;28;20205;-76
2021/11/11 00:20:42;;;;;;;19.23;14.63;;;;;;;;;;4970298;28;20690;-78
2021/11/11 00:23:09;;;;;;;23.48;14.30;;;;;;;;;;4970872;28;20348;-77
2021/11/11 00:25:37;;;;;;;22.77;14.48;;;;;;;;;;4969989;28;20204;-78
2021/11/11 00:28:21;;;;;;;16.25;13.00;;;;;;;;;;4972552;28;20207;-77
2021/11/11 00:30:48;;;;;;;17.85;14.15;;;;;;;;;;4972880;28;20663;-77
2021/11/11 00:33:15;;;;;;;17.73;13.88;;;;;;;;;;4955371;28;20210;-78
2021/11/11 00:35:42;;;;;;;21.08;14.48;;;;;;;;;;4972121;28;20214;-78
2021/11/11 00:38:09;;;;;;;21.50;12.73;;;;;;;;;;4970466;28;20209;-78
2021/11/11 00:40:36;;;;;;;14.88;12.80;;;;;;;;;;4965589;28;20213;-76
2021/11/11 00:43:04;;;;;;;16.30;12.68;;;;;;;;;;4971498;28;20193;-76
2021/11/11 00:45:33;;;;;;;15.38;13.15;;;;;;;;;;4972133;28;20678;-77
2021/11/11 00:48:01;;;;;;;14.50;11.65;;;;;;;;;;4969593;28;20201;-77
2021/11/11 00:50:47;;;;;;;18.02;13.68;;;;;;;;;;4972638;28;20362;-77
2021/11/11 00:53:14;;;;;;;12.18;10.65;;;;;;;;;;4970001;28;20194;-77
2021/11/11 00:55:41;;;;;;;18.00;12.73;;;;;;;;;;4970300;28;20222;-76
2021/11/11 00:58:08;;;;;;;17.38;13.25;;;;;;;;;;4970411;28;20210;-77
2021/11/11 01:00:38;;;;;;;20.63;12.70;;;;;;;;;;4971508;28;20567;-77
2021/11/11 01:03:06;;;;;;;16.60;12.93;;;;;;;;;;4968795;28;20288;-77
2021/11/11 01:05:33;;;;;;;14.70;11.70;;;;;;;;;;4976394;28;20194;-76
2021/11/11 01:08:00;;;;;;;19.23;13.93;;;;;;;;;;4969051;28;20217;-77
2021/11/11 01:10:27;;;;;;;14.50;10.98;;;;;;;;;;4964985;28;20216;-77
2021/11/11 01:12:55;;;;;;;15.80;12.43;;;;;;;;;;4971254;28;20205;-77
2021/11/11 01:15:22;;;;;;;15.80;12.23;;;;;;;;;;4968174;28;20231;-76
2021/11/11 01:17:51;;;;;;;18.67;13.57;;;;;;;;;;4967473;28;20280;-76
2021/11/11 01:20:19;;;;;;;13.80;12.00;;;;;;;;;;4969733;28;20665;-77
2021/11/11 01:22:47;;;;;;;16.42;12.05;;;;;;;;;;4970134;28;20206;-77
2021/11/11 01:25:15;;;;;;;15.57;11.73;;;;;;;;;;4967735;28;20206;-76
2021/11/11 01:27:42;;;;;;;14.82;11.90;;;;;;;;;;4971514;28;20198;-78
2021/11/11 01:30:10;;;;;;;15.15;12.40;;;;;;;;;;4970839;28;20282;-77
2021/11/11 01:32:37;;;;;;;13.98;11.45;;;;;;;;;;4968731;28;20208;-77
2021/11/11 01:35:08;;;;;;;14.68;11.10;;;;;;;;;;4971703;28;20225;-78
2021/11/11 01:37:36;;;;;;;14.50;11.50;;;;;;;;;;4972000;28;20571;-75
2021/11/11 01:40:04;;;;;;;15.52;10.85;;;;;;;;;;4969182;28;20205;-77
2021/11/11 01:42:41;;;;;;;14.95;11.20;;;;;;;;;;4970156;28;20197;-77
2021/11/11 01:45:08;;;;;;;19.38;11.65;;;;;;;;;;4967126;28;20200;-78
2021/11/11 01:47:36;;;;;;;13.43;11.20;;;;;;;;;;4966553;28;20206;-77
2021/11/11 01:50:06;;;;;;;16.00;10.70;;;;;;;;;;4969533;28;20741;-78
2021/11/11 01:52:33;;;;;;;14.40;11.10;;;;;;;;;;4966904;28;20197;-78
2021/11/11 01:55:00;;;;;;;15.60;12.15;;;;;;;;;;4970743;28;20256;-78
2021/11/11 01:57:28;;;;;;;12.55;10.85;;;;;;;;;;4969245;28;20198;-79
2021/11/11 01:59:55;;;;;;;26.48;12.27;;;;;;;;;;4970158;28;20221;-78
2021/11/11 02:02:25;;;;;;;12.07;8.98;;;;;;;;;;4964669;28;20202;-78
2021/11/11 02:04:52;;;;;;;12.77;10.43;;;;;;;;;;4977264;28;20280;-79
2021/11/11 02:07:20;;;;;;;12.10;9.82;;;;;;;;;;4969441;28;20208;-78
2021/11/11 02:09:47;;;;;;;14.43;11.13;;;;;;;;;;4963528;28;20543;-78
2021/11/11 02:12:14;;;;;;;14.63;11.50;;;;;;;;;;4970294;28;20574;-78
2021/11/11 02:14:41;;;;;;;10.88;9.77;;;;;;;;;;4971541;28;20217;-79
2021/11/11 02:17:08;;;;;;;13.68;10.80;;;;;;;;;;4970246;28;20222;-78
2021/11/11 02:19:36;;;;;;;15.15;10.65;;;;;;;;;;4971256;28;20201;-79
2021/11/11 02:22:05;;;;;;;12.98;9.68;;;;;;;;;;4964150;28;20294;-77
2021/11/11 02:24:32;;;;;;;13.10;9.85;;;;;;;;;;4961966;28;20205;-78
2021/11/11 02:26:59;;;;;;;13.35;11.63;;;;;;;;;;4971827;28;20202;-78
2021/11/11 02:29:27;;;;;;;13.88;10.52;;;;;;;;;;4968294;28;20198;-77
2021/11/11 02:31:54;;;;;;;13.20;10.43;;;;;;;;;;4970334;28;20627;-76
2021/11/11 02:34:23;;;;;;;16.50;11.50;;;;;;;;;;4970246;28;20670;-77
2021/11/11 02:36:57;;;;;;;13.57;10.13;;;;;;;;;;4963532;28;20204;-77
2021/11/11 02:39:29;;;;;;;11.77;10.52;;;;;;;;;;4972669;28;20201;-77
2021/11/11 02:41:56;;;;;;;11.40;9.95;;;;;;;;;;4973985;28;20205;-78
2021/11/11 02:44:24;;;;;;;15.23;10.52;;;;;;;;;;4971776;28;20670;-77
2021/11/11 02:46:51;;;;;;;11.90;9.88;;;;;;;;;;4972222;28;20205;-78
2021/11/11 02:49:18;;;;;;;13.30;10.48;;;;;;;;;;4958718;28;20201;-78
2021/11/11 02:51:46;;;;;;;13.43;10.68;;;;;;;;;;4972610;28;20622;-78
2021/11/11 02:54:13;;;;;;;11.90;9.90;;;;;;;;;;4970049;28;20679;-77
2021/11/11 02:56:41;;;;;;;12.20;10.07;;;;;;;;;;4974133;28;20590;-78
2021/11/11 02:59:08;;;;;;;13.57;9.35;;;;;;;;;;4972474;28;20218;-78
2021/11/11 03:01:36;;;;;;;11.85;10.27;;;;;;;;;;4971975;28;20215;-77
2021/11/11 03:04:03;;;;;;;13.18;9.82;;;;;;;;;;4982211;28;20199;-77
2021/11/11 03:06:30;;;;;;;13.55;10.18;;;;;;;;;;4983302;28;20682;-78
2021/11/11 03:08:57;;;;;;;10.80;9.65;;;;;;;;;;4968365;28;20213;-77
2021/11/11 03:11:27;;;;;;;10.85;8.80;;;;;;;;;;4971552;28;20205;-78
2021/11/11 03:13:55;;;;;;;11.85;9.73;;;;;;;;;;4973626;28;20200;-78
2021/11/11 03:16:22;;;;;;;11.02;8.40;;;;;;;;;;4972679;28;20229;-78
2021/11/11 03:18:49;;;;;;;14.13;10.55;;;;;;;;;;4969556;28;20292;-78
2021/11/11 03:21:16;;;;;;;10.35;8.50;;;;;;;;;;4972326;28;20204;-78
2021/11/11 03:23:44;;;;;;;10.68;8.30;;;;;;;;;;4971716;28;20217;-77
2021/11/11 03:26:11;;;;;;;11.57;9.80;;;;;;;;;;4972253;28;20205;-78
2021/11/11 03:28:38;;;;;;;10.00;7.72;;;;;;;;;;4970097;28;20205;-78
2021/11/11 03:31:06;;;;;;;23.83;10.13;;;;;;;;;;4972076;28;20685;-78
2021/11/11 03:33:33;;;;;;;12.18;9.20;;;;;;;;;;4967057;28;20205;-78
2021/11/11 03:36:00;;;;;;;11.35;8.65;;;;;;;;;;4970017;28;20240;-79
2021/11/11 03:38:27;;;;;;;11.60;8.70;;;;;;;;;;4964019;28;20194;-79
2021/11/11 03:40:55;;;;;;;11.15;9.52;;;;;;;;;;4972935;28;20659;-80
2021/11/11 03:43:22;;;;;;;13.07;9.05;;;;;;;;;;4966469;28;20198;-78
2021/11/11 03:45:50;;;;;;;12.45;8.00;;;;;;;;;;4959150;28;20207;-77
2021/11/11 03:48:18;;;;;;;10.90;8.30;;;;;;;;;;4969392;28;20198;-79
2021/11/11 03:50:45;;;;;;;8.65;7.22;;;;;;;;;;4972408;28;20202;-75
2021/11/11 03:53:12;;;;;;;9.98;8.95;;;;;;;;;;4973300;28;20633;-74
2021/11/11 03:55:39;;;;;;;11.35;8.25;;;;;;;;;;4973996;28;20217;-75
2021/11/11 03:58:06;;;;;;;9.63;8.23;;;;;;;;;;4971726;28;20201;-74
2021/11/11 04:00:33;;;;;;;9.07;8.18;;;;;;;;;;4969947;28;20579;-75
2021/11/11 04:03:00;;;;;;;10.63;8.63;;;;;;;;;;4971969;28;20574;-74
2021/11/11 04:05:29;;;;;;;9.93;8.10;;;;;;;;;;4974156;28;20208;-76
2021/11/11 04:07:56;;;;;;;10.30;9.25;;;;;;;;;;4970836;28;20205;-75
2021/11/11 04:10:24;;;;;;;9.15;8.25;;;;;;;;;;4964308;28;20564;-75
2021/11/11 04:12:51;;;;;;;10.15;8.77;;;;;;;;;;4973015;28;20296;-74
2021/11/11 04:15:18;;;;;;;10.02;9.02;;;;;;;;;;4970136;28;20217;-75
2021/11/11 04:17:45;;;;;;;10.13;8.23;;;;;;;;;;4967300;28;20201;-74
2021/11/11 04:20:13;;;;;;;10.43;8.52;;;;;;;;;;4970639;28;20717;-74
2021/11/11 04:22:41;;;;;;;10.18;9.05;;;;;;;;;;4971956;28;20193;-74
2021/11/11 04:25:12;;;;;;;9.98;8.70;;;;;;;;;;4971135;28;20209;-75
2021/11/11 04:27:44;;;;;;;9.40;7.88;;;;;;;;;;4972981;28;20655;-75
2021/11/11 04:30:17;;;;;;;11.80;9.18;;;;;;;;;;4972198;28;20206;-74
2021/11/11 04:32:45;;;;;;;10.15;7.63;;;;;;;;;;4964653;28;21667;-76
2021/11/11 04:35:12;;;;;;;11.07;8.10;;;;;;;;;;4968505;28;20611;-75
2021/11/11 04:37:51;;;;;;;11.40;8.15;;;;;;;;;;4972667;28;20200;-75
2021/11/11 04:40:53;;;;;;;9.55;8.65;;;;;;;;;;4973003;28;20675;-75
2021/11/11 04:43:44;;;;;;;10.02;7.55;;;;;;;;;;4973298;28;20189;-74
2021/11/11 04:49:22;;;;;;;11.50;8.27;;;;;;;;;;4971415;28;20192;-76
2021/11/11 04:52:04;;;;;;;10.88;8.07;;;;;;;;;;4971828;28;20190;-75
2021/11/11 05:05:31;;;;;;;7.10;6.40;;;;;;;;;;4970408;28;20237;-75
2021/11/11 05:07:58;;;;;;;9.82;8.23;;;;;;;;;;4972683;28;20209;-74
2021/11/11 05:10:26;;;;;;;10.02;8.43;;;;;;;;;;4969526;28;21698;-74
2021/11/11 05:12:55;;;;;;;9.95;7.45;;;;;;;;;;4973386;28;20193;-75
2021/11/11 05:15:23;;;;;;;10.25;8.70;;;;;;;;;;4967547;28;20232;-74
2021/11/11 05:17:50;;;;;;;11.00;8.60;;;;;;;;;;4968689;28;20619;-75
2021/11/11 05:20:18;;;;;;;9.50;7.80;;;;;;;;;;4969756;28;20193;-75
2021/11/11 05:22:45;;;;;;;7.88;7.07;;;;;;;;;;4972514;28;20198;-75
2021/11/11 05:25:12;;;;;;;12.63;8.23;;;;;;;;;;4970355;28;20210;-75
2021/11/11 05:27:41;;;;;;;9.98;7.40;;;;;;;;;;4971334;28;20205;-75
2021/11/11 05:30:11;;;;;;;9.02;7.95;;;;;;;;;;4972387;28;20706;-75
2021/11/11 05:32:38;;;;;;;9.68;8.38;;;;;;;;;;4976196;28;20200;-75
2021/11/11 05:35:06;;;;;;;11.25;9.05;;;;;;;;;;4980031;28;20194;-74
2021/11/11 05:37:33;;;;;;;9.82;7.95;;;;;;;;;;4977444;28;20217;-75
2021/11/11 05:40:01;;;;;;;15.02;7.45;;;;;;;;;;4970312;28;20587;-77
2021/11/11 05:42:28;;;;;;;10.43;7.82;;;;;;;;;;4965450;28;20209;-75
2021/11/11 05:44:55;;;;;;;10.48;8.50;;;;;;;;;;4967975;28;20205;-75
2021/11/11 05:47:23;;;;;;;10.02;8.48;;;;;;;;;;4971029;28;20540;-75
2021/11/11 05:49:50;;;;;;;11.02;8.35;;;;;;;;;;4972063;28;20627;-75
2021/11/11 05:52:17;;;;;;;10.48;8.07;;;;;;;;;;4971437;28;20216;-75
2021/11/11 05:54:45;;;;;;;10.85;8.77;;;;;;;;;;4961792;28;20205;-75
2021/11/11 05:57:12;;;;;;;12.68;8.68;;;;;;;;;;4971294;28;20226;-75
2021/11/11 05:59:39;;;;;;;9.40;7.57;;;;;;;;;;4970495;28;20218;-76
2021/11/11 06:02:07;;;;;;;10.23;8.88;;;;;;;;;;4968547;28;20202;-75
2021/11/11 06:04:35;;;;;;;9.88;8.20;;;;;;;;;;4977547;28;20205;-76
2021/11/11 06:07:02;;;;;;;13.00;8.18;;;;;;;;;;4974851;28;20194;-76
2021/11/11 06:09:29;;;;;;;8.95;8.05;;;;;;;;;;4968049;28;20684;-75
2021/11/11 06:11:56;;;;;;;13.07;9.00;;;;;;;;;;4974855;28;20690;-75
2021/11/11 06:14:24;;;;;;;10.38;8.38;;;;;;;;;;4975421;28;20209;-75
2021/11/11 06:16:51;;;;;;;11.10;9.18;;;;;;;;;;4975036;28;20209;-75
2021/11/11 06:19:18;;;;;;;9.75;8.77;;;;;;;;;;4972100;28;20205;-75
2021/11/11 06:21:47;;;;;;;11.30;9.48;;;;;;;;;;4975068;28;20643;-75
2021/11/11 06:24:15;;;;;;;10.95;8.55;;;;;;;;;;4972992;28;20204;-75
2021/11/11 06:26:42;;;;;;;10.13;9.00;;;;;;;;;;4974709;28;20193;-76
2021/11/11 06:29:09;;;;;;;13.68;9.32;;;;;;;;;;4974951;28;20225;-76
2021/11/11 06:31:36;;;;;;;10.45;9.45;;;;;;;;;;4965175;28;20208;-76
2021/11/11 06:34:03;;;;;;;8.98;7.75;;;;;;;;;;4975027;28;20204;-75
2021/11/11 06:36:31;;;;;;;10.15;9.10;;;;;;;;;;4970790;28;20213;-75
2021/11/11 06:39:00;;;;;;;10.48;9.15;;;;;;;;;;4965729;28;20205;-76
2021/11/11 06:41:27;;;;;;;11.18;9.38;;;;;;;;;;4969133;28;20279;-76
2021/11/11 06:43:54;;;;;;;11.30;8.95;;;;;;;;;;4973345;28;20296;-75
2021/11/11 06:46:21;;;;;;;11.23;9.05;;;;;;;;;;4973168;28;20659;-76
2021/11/11 06:48:49;;;;;;;12.65;10.05;;;;;;;;;;4972888;28;20667;-76
2021/11/11 06:51:16;;;;;;;9.93;8.93;;;;;;;;;;4970271;28;20202;-77
2021/11/11 06:53:43;;;;;;;10.23;9.02;;;;;;;;;;4969474;28;20197;-75
2021/11/11 06:56:11;;;;;;;9.57;7.70;;;;;;;;;;4968355;28;20232;-75
2021/11/11 06:58:39;;;;;;;9.88;8.60;;;;;;;;;;4974925;28;20208;-75
2021/11/11 07:01:06;;;;;;;11.00;9.02;;;;;;;;;;4969929;28;20303;-74
2021/11/11 07:03:33;;;;;;;10.63;7.93;;;;;;;;;;4978948;28;20197;-75
2021/11/11 07:06:00;;;;;;;11.40;8.85;;;;;;;;;;4980137;28;20200;-75
2021/11/11 07:08:28;;;;;;;10.30;8.63;;;;;;;;;;4969132;28;20217;-74
2021/11/11 07:10:55;;;;;;;11.50;8.70;;;;;;;;;;4970884;28;20695;-75
2021/11/11 07:13:24;;;;;;;13.80;8.77;;;;;;;;;;4973122;28;20198;-75
2021/11/11 07:15:51;;;;;;;10.10;8.57;;;;;;;;;;4972196;28;20260;-75
2021/11/11 07:18:18;;;;;;;10.70;9.60;;;;;;;;;;4967835;28;20202;-76
2021/11/11 07:20:47;;;;;;;12.35;9.30;;;;;;;;;;4973023;28;20205;-76
2021/11/11 07:23:16;;;;;;;10.73;8.45;;;;;;;;;;4969223;28;20671;-75
2021/11/11 07:25:44;;;;;;;11.60;8.57;;;;;;;;;;4969618;28;20198;-74
2021/11/11 07:28:11;;;;;;;13.93;8.18;;;;;;;;;;4972694;28;20204;-75
2021/11/11 07:30:39;;;;;;;10.10;8.77;;;;;;;;;;4970780;28;20201;-75
2021/11/11 07:33:06;;;;;;;11.63;9.05;;;;;;;;;;4969061;28;20202;-75
2021/11/11 07:35:33;;;;;;;10.43;8.15;;;;;;;;;;4970748;28;20198;-75
2021/11/11 07:38:01;;;;;;;14.57;9.55;;;;;;;;;;4968998;28;20345;-75
2021/11/11 07:40:29;;;;;;;10.27;8.75;;;;;;;;;;4972834;28;20257;-75
2021/11/11 07:42:56;;;;;;;10.68;9.20;;;;;;;;;;4972825;28;20204;-76
2021/11/11 07:45:28;;;;;;;10.75;8.27;;;;;;;;;;4972723;28;20206;-75
2021/11/11 07:47:59;;;;;;;11.40;7.63;;;;;;;;;;4972344;28;20240;-75
2021/11/11 07:50:26;;;;;;;8.52;7.55;;;;;;;;;;4972093;28;20208;-76
2021/11/11 07:52:56;;;;;;;8.63;7.43;;;;;;;;;;4971642;28;20198;-75
2021/11/11 07:55:24;;;;;;;10.15;8.85;;;;;;;;;;4968333;28;20205;-75
2021/11/11 07:57:52;;;;;;;9.90;8.65;;;;;;;;;;4962805;28;20253;-75
2021/11/11 08:00:19;;;;;;;9.93;8.82;;;;;;;;;;4965120;28;20220;-75
2021/11/11 08:02:46;;;;;;;13.45;7.93;;;;;;;;;;4965549;28;20663;-75
2021/11/11 08:05:15;;;;;;;10.18;8.75;;;;;;;;;;4967872;28;20217;-75
2021/11/11 08:07:44;;;;;;;14.57;7.78;;;;;;;;;;4974306;28;20197;-75
2021/11/11 08:10:12;;;;;;;11.32;8.10;;;;;;;;;;4969093;28;20660;-75
2021/11/11 08:12:39;;;;;;;10.07;7.70;;;;;;;;;;4964234;28;20206;-75
2021/11/11 08:15:07;;;;;;;11.07;9.27;;;;;;;;;;4982034;28;20600;-76
2021/11/11 08:17:34;;;;;;;14.85;9.50;;;;;;;;;;4970814;28;20222;-75
2021/11/11 08:20:01;;;;;;;14.35;8.18;;;;;;;;;;4965654;28;20572;-75
2021/11/11 08:22:29;;;;;;;9.75;8.57;;;;;;;;;;4969507;28;20206;-75
2021/11/11 08:24:57;;;;;;;11.35;7.78;;;;;;;;;;4966974;28;20659;-75
2021/11/11 08:27:25;;;;;;;12.90;8.77;;;;;;;;;;4970988;28;20623;-75
2021/11/11 08:29:54;;;;;;;9.23;7.97;;;;;;;;;;4971197;28;20198;-75
2021/11/11 08:32:21;;;;;;;13.48;8.30;;;;;;;;;;4971251;28;20198;-75
2021/11/11 08:34:51;;;;;;;9.40;7.30;;;;;;;;;;4968923;28;20235;-74
2021/11/11 08:37:18;;;;;;;9.70;8.10;;;;;;;;;;4972698;28;20226;-74
2021/11/11 08:39:47;;;;;;;13.63;8.93;;;;;;;;;;4971460;28;20201;-73
2021/11/11 08:42:14;;;;;;;11.20;8.40;;;;;;;;;;4972081;28;20237;-74
2021/11/11 08:44:43;;;;;;;11.88;8.35;;;;;;;;;;4968434;28;20285;-73
2021/11/11 08:47:11;;;;;;;10.30;7.25;;;;;;;;;;4955910;28;20611;-75
2021/11/11 08:49:38;;;;;;;9.60;7.22;;;;;;;;;;4966034;28;20201;-74
2021/11/11 08:52:05;;;;;;;9.48;7.00;;;;;;;;;;4971629;28;20548;-73
2021/11/11 08:54:32;;;;;;;13.43;8.65;;;;;;;;;;4971378;28;20201;-75
2021/11/11 08:57:00;;;;;;;11.25;7.70;;;;;;;;;;4970702;28;20219;-75
2021/11/11 08:59:28;;;;;;;8.38;7.25;;;;;;;;;;4972249;28;20221;-75
2021/11/11 09:01:55;;;;;;;10.60;7.88;;;;;;;;;;4968253;28;20201;-75
2021/11/11 09:04:23;;;;;;;9.57;7.78;;;;;;;;;;4968217;28;20193;-76
2021/11/11 09:06:51;;;;;;;9.48;6.68;;;;;;;;;;4971057;28;20224;-76
2021/11/11 09:09:18;;;;;;;12.50;8.00;;;;;;;;;;4971083;28;20687;-75
2021/11/11 09:11:46;;;;;;;13.20;7.13;;;;;;;;;;4972547;28;20205;-76
2021/11/11 09:14:15;;;;;;;8.52;6.93;;;;;;;;;;4970693;28;20200;-76
2021/11/11 09:16:42;;;;;;;10.88;7.43;;;;;;;;;;4981581;28;20217;-75
2021/11/11 09:19:09;;;;;;;8.00;7.07;;;;;;;;;;4966124;28;20209;-76
2021/11/11 09:21:37;;;;;;;9.88;7.28;;;;;;;;;;4963782;28;20678;-76
2021/11/11 09:24:04;;;;;;;9.63;6.90;;;;;;;;;;4961569;28;20205;-76
2021/11/11 09:26:31;;;;;;;8.52;7.25;;;;;;;;;;4964687;28;20204;-75
2021/11/11 09:28:58;;;;;;;10.48;7.80;;;;;;;;;;4971932;28;20655;-76
2021/11/11 09:31:27;;;;;;;9.02;6.90;;;;;;;;;;4970843;28;20197;-76
2021/11/11 09:33:54;;;;;;;11.48;7.40;;;;;;;;;;4964097;28;20664;-76
2021/11/11 09:36:21;;;;;;;8.93;7.10;;;;;;;;;;4971560;28;20661;-75
2021/11/11 09:38:49;;;;;;;9.77;7.72;;;;;;;;;;4963662;28;20225;-75
2021/11/11 09:41:17;;;;;;;7.38;6.30;;;;;;;;;;4985110;28;20581;-76
2021/11/11 09:43:44;;;;;;;9.55;7.40;;;;;;;;;;4995877;28;20211;-76
2021/11/11 09:46:12;;;;;;;8.98;6.90;;;;;;;;;;4988309;28;20205;-76
2021/11/11 09:48:42;;;;;;;8.38;7.20;;;;;;;;;;4973788;28;20689;-76
2021/11/11 09:51:12;;;;;;;10.63;7.03;;;;;;;;;;4969380;28;20202;-76
2021/11/11 09:53:49;;;;;;;8.18;6.53;;;;;;;;;;4974179;28;20301;-76
2021/11/11 09:59:01;;;;;;;8.55;7.20;;;;;;;;;;4973467;28;20749;-76
2021/11/11 10:01:29;;;;;;;7.65;6.13;;;;;;;;;;4970302;28;20236;-76
2021/11/11 10:03:57;;;;;;;6.93;6.18;;;;;;;;;;4976025;28;20202;-76
2021/11/11 10:06:25;;;;;;;6.47;5.15;;;;;;;;;;4980069;28;20213;-76
2021/11/11 10:08:53;;;;;;;7.60;6.80;;;;;;;;;;4957847;28;20201;-75
2021/11/11 10:11:30;;;;;;;11.10;6.40;;;;;;;;;;4968741;28;20209;-76
2021/11/11 10:13:57;;;;;;;8.75;6.88;;;;;;;;;;4975984;28;20251;-75
2021/11/11 10:16:24;;;;;;;8.20;7.40;;;;;;;;;;4975676;28;20193;-76
2021/11/11 10:18:52;;;;;;;8.00;6.38;;;;;;;;;;4968730;28;20213;-77
2021/11/11 10:21:28;;;;;;;7.95;6.40;;;;;;;;;;4975719;28;20656;-75
2021/11/11 10:23:57;;;;;;;9.55;5.97;;;;;;;;;;4967471;28;20202;-76
2021/11/11 10:26:28;;;;;;;7.47;6.38;;;;;;;;;;4975386;28;20201;-76
2021/11/11 10:28:55;;;;;;;8.65;6.35;;;;;;;;;;4974845;28;20696;-76
2021/11/11 10:31:22;;;;;;;7.07;6.38;;;;;;;;;;4975338;28;20198;-76
2021/11/11 10:34:06;;;;;;;6.80;5.85;;;;;;;;;;4973943;28;20201;-76
2021/11/11 10:36:44;;;;;;;6.55;5.50;;;;;;;;;;4974908;28;20201;-75
2021/11/11 10:39:13;;;;;;;6.75;5.82;;;;;;;;;;4966056;28;20281;-76
2021/11/11 10:41:40;;;;;;;6.75;6.15;;;;;;;;;;4960635;28;20194;-76
2021/11/11 10:44:17;;;;;;;12.20;6.68;;;;;;;;;;4962831;28;20225;-76
2021/11/11 10:46:45;;;;;;;8.18;5.90;;;;;;;;;;4958466;28;20202;-77
2021/11/11 10:49:23;;;;;;;6.53;5.72;;;;;;;;;;4973002;28;20252;-76
2021/11/11 10:51:51;;;;;;;7.75;6.68;;;;;;;;;;4956784;28;20201;-76
2021/11/11 10:54:18;;;;;;;7.68;6.88;;;;;;;;;;4969572;28;20213;-75
2021/11/11 10:56:46;;;;;;;10.02;6.25;;;;;;;;;;4973280;28;20205;-76
2021/11/11 10:59:14;;;;;;;8.13;5.22;;;;;;;;;;4974725;28;20225;-76
2021/11/11 11:01:42;;;;;;;8.18;6.55;;;;;;;;;;4966394;28;20201;-75
2021/11/11 11:04:24;;;;;;;7.55;5.72;;;;;;;;;;4973501;28;20643;-75
2021/11/11 11:06:52;;;;;;;8.27;6.07;;;;;;;;;;4973646;28;20194;-76
2021/11/11 11:09:19;;;;;;;10.35;6.95;;;;;;;;;;4963943;28;20210;-75
2021/11/11 11:11:46;;;;;;;8.15;7.00;;;;;;;;;;4970964;28;20573;-75
2021/11/11 11:14:14;;;;;;;6.43;5.70;;;;;;;;;;4960838;28;20213;-76
2021/11/11 11:16:41;;;;;;;6.95;5.22;;;;;;;;;;4973624;28;20204;-75
2021/11/11 11:19:09;;;;;;;9.68;5.00;;;;;;;;;;4970062;28;20236;-76
2021/11/11 11:21:39;;;;;;;8.85;6.13;;;;;;;;;;4965484;28;20201;-75
2021/11/11 11:24:09;;;;;;;7.75;6.57;;;;;;;;;;4955661;28;20293;-76
2021/11/11 11:26:38;;;;;;;6.30;5.22;;;;;;;;;;4973146;28;20592;-76
2021/11/11 11:29:11;;;;;;;8.65;6.03;;;;;;;;;;4972406;28;20651;-76
2021/11/11 11:31:43;;;;;;;6.97;5.82;;;;;;;;;;4971107;28;20197;-76
2021/11/11 11:34:11;;;;;;;8.45;6.00;;;;;;;;;;4972933;28;20701;-75
2021/11/11 11:36:40;;;;;;;10.43;6.60;;;;;;;;;;4966893;28;20197;-76
2021/11/11 11:39:09;;;;;;;11.48;7.25;;;;;;;;;;4971144;28;20228;-76
2021/11/11 11:41:38;;;;;;;11.63;6.93;;;;;;;;;;4974019;28;20204;-75
2021/11/11 11:44:24;;;;;;;7.38;6.10;;;;;;;;;;4973724;28;20662;-76
2021/11/11 11:46:56;;;;;;;7.15;6.38;;;;;;;;;;4966870;28;20198;-75
2021/11/11 11:49:25;;;;;;;7.97;6.18;;;;;;;;;;4970902;28;20695;-76
2021/11/11 11:51:52;;;;;;;7.78;6.18;;;;;;;;;;4971429;28;20290;-76
2021/11/11 11:54:26;;;;;;;8.10;6.65;;;;;;;;;;4958241;28;20297;-76
2021/11/11 11:56:57;;;;;;;8.23;6.50;;;;;;;;;;4967677;28;20197;-75
2021/11/11 11:59:28;;;;;;;9.73;6.75;;;;;;;;;;4972736;28;20224;-75
2021/11/11 12:02:10;;;;;;;10.93;7.07;;;;;;;;;;4968940;28;20931;-76
2021/11/11 12:04:56;;;;;;;10.75;7.28;;;;;;;;;;4968448;28;20199;-75
2021/11/11 12:07:29;;;;;;;7.93;6.28;;;;;;;;;;4970666;28;20212;-75
2021/11/11 12:10:06;;;;;;;10.45;7.72;;;;;;;;;;4965570;28;20237;-76
2021/11/11 12:12:52;;;;;;;8.93;6.70;;;;;;;;;;4972785;28;20198;-77
2021/11/11 12:15:25;;;;;;;9.70;7.65;;;;;;;;;;4969061;28;20233;-76
2021/11/11 12:18:25;;;;;;;10.15;7.28;;;;;;;;;;4967527;28;20272;-75
2021/11/11 12:29:52;;;;;;;8.18;6.60;;;;;;;;;;4969719;28;20256;-75
2021/11/11 12:41:06;;;;;;;12.20;8.88;;;;;;;;;;4967791;28;20197;-76
2021/11/11 12:43:35;;;;;;;10.75;7.53;;;;;;;;;;4970041;28;20659;-76
2021/11/11 12:46:03;;;;;;;8.18;7.25;;;;;;;;;;4971186;28;20208;-76
2021/11/11 12:48:31;;;;;;;9.90;8.02;;;;;;;;;;4966307;28;20215;-77
2021/11/11 12:51:05;;;;;;;10.75;7.97;;;;;;;;;;4970878;28;20201;-75
2021/11/11 12:53:50;;;;;;;13.63;9.00;;;;;;;;;;4968352;28;20210;-76
2021/11/11 12:56:28;;;;;;;9.25;7.75;;;;;;;;;;4970265;28;20811;-75
2021/11/11 12:59:10;;;;;;;11.85;8.05;;;;;;;;;;4972245;28;20213;-75
2021/11/11 13:01:48;;;;;;;10.80;8.75;;;;;;;;;;4965098;28;20575;-76
2021/11/11 13:04:18;;;;;;;10.55;7.65;;;;;;;;;;4972075;28;20201;-75
2021/11/11 13:06:46;;;;;;;13.05;8.48;;;;;;;;;;4973135;28;20313;-75
2021/11/11 13:09:15;;;;;;;14.27;7.18;;;;;;;;;;4971074;28;20237;-75
2021/11/11 13:11:43;;;;;;;9.82;7.90;;;;;;;;;;4969930;28;20201;-75
2021/11/11 13:14:14;;;;;;;12.25;8.43;;;;;;;;;;4969007;28;20195;-75
2021/11/11 13:16:46;;;;;;;14.02;8.70;;;;;;;;;;4953269;28;20706;-76
2021/11/11 13:19:30;;;;;;;11.90;9.10;;;;;;;;;;4967458;28;20213;-75
2021/11/11 13:22:00;;;;;;;15.48;8.95;;;;;;;;;;4966472;28;20197;-76
2021/11/11 13:24:45;;;;;;;10.23;8.32;;;;;;;;;;4962361;28;20547;-75
2021/11/11 13:59:17;;;;;;;12.65;7.72;;;;;;;;;;4965995;28;20244;-75
2021/11/11 14:02:34;;;;;;;11.55;8.35;;;;;;;;;;4963899;28;20202;-76
2021/11/11 14:05:22;;;;;;;12.65;9.30;;;;;;;;;;4971149;28;20209;-76
2021/11/11 15:17:35;;;;;;;11.30;8.40;;;;;;;;;;4966875;28;20197;-76
2021/11/11 15:20:25;;;;;;;13.20;8.43;;;;;;;;;;4967413;28;20224;-75
2021/11/11 16:02:31;;;;;;;10.18;7.10;;;;;;;;;;4974061;28;20241;-76
2021/11/11 16:21:48;;;;;;;11.68;7.60;;;;;;;;;;4972818;28;20200;-75
2021/11/11 16:24:30;;;;;;;9.43;7.60;;;;;;;;;;4971294;28;20305;-75
2021/11/11 16:26:58;;;;;;;8.00;6.82;;;;;;;;;;4965483;28;20275;-75
2021/11/11 16:29:26;;;;;;;8.93;7.07;;;;;;;;;;4972959;28;20197;-75
2021/11/11 16:31:54;;;;;;;9.30;7.00;;;;;;;;;;4973229;28;20212;-76
2021/11/11 16:34:21;;;;;;;8.68;7.00;;;;;;;;;;4966689;28;20614;-76
2021/11/11 16:36:48;;;;;;;9.63;6.60;;;;;;;;;;4967843;28;20197;-75
2021/11/11 16:39:17;;;;;;;10.73;7.28;;;;;;;;;;4972214;28;20615;-76
2021/11/11 16:41:44;;;;;;;8.27;7.03;;;;;;;;;;4972948;28;20202;-76
2021/11/11 16:44:12;;;;;;;9.43;6.65;;;;;;;;;;4982160;28;20291;-76
2021/11/11 16:46:40;;;;;;;8.07;6.07;;;;;;;;;;4967104;28;20201;-75
2021/11/11 16:49:08;;;;;;;11.38;6.38;;;;;;;;;;4967150;28;20208;-75
2021/11/11 16:51:35;;;;;;;9.40;5.90;;;;;;;;;;4968325;28;20212;-75
2021/11/11 16:54:03;;;;;;;6.72;5.47;;;;;;;;;;4969249;28;20193;-75
2021/11/11 16:56:31;;;;;;;7.15;6.35;;;;;;;;;;4966574;28;20635;-74
2021/11/11 16:58:59;;;;;;;6.80;5.85;;;;;;;;;;4965254;28;20213;-75
2021/11/11 17:01:26;;;;;;;9.27;6.80;;;;;;;;;;4970759;28;20232;-75
2021/11/11 17:03:54;;;;;;;6.05;5.05;;;;;;;;;;4972822;28;20204;-76
2021/11/11 17:06:21;;;;;;;8.13;5.97;;;;;;;;;;4970145;28;20197;-75
2021/11/11 17:08:48;;;;;;;8.90;6.93;;;;;;;;;;4969285;28;20208;-75
2021/11/11 17:11:16;;;;;;;6.88;6.05;;;;;;;;;;4972363;28;20205;-75
2021/11/11 17:13:45;;;;;;;7.15;6.28;;;;;;;;;;4967716;28;20194;-75
2021/11/11 17:16:13;;;;;;;9.48;5.80;;;;;;;;;;4955211;28;20205;-75
2021/11/11 17:18:40;;;;;;;8.40;6.07;;;;;;;;;;4972568;28;20226;-76
2021/11/11 17:21:12;;;;;;;8.30;7.03;;;;;;;;;;4968171;28;20600;-75
2021/11/11 17:23:45;;;;;;;9.95;7.30;;;;;;;;;;4953986;28;20245;-75
2021/11/11 17:26:20;;;;;;;7.78;6.40;;;;;;;;;;4957402;28;20236;-75
2021/11/11 17:28:49;;;;;;;9.30;5.70;;;;;;;;;;4972897;28;20643;-74
2021/11/11 17:31:16;;;;;;;5.47;4.97;;;;;;;;;;4970998;28;20201;-75
2021/11/11 17:33:44;;;;;;;8.13;6.15;;;;;;;;;;4963880;28;20674;-74
2021/11/11 17:36:12;;;;;;;6.03;5.43;;;;;;;;;;4971812;28;20234;-75
2021/11/11 17:38:40;;;;;;;7.10;6.32;;;;;;;;;;4960295;28;20244;-75
2021/11/11 17:41:07;;;;;;;8.18;5.47;;;;;;;;;;4952887;28;20563;-75
2021/11/11 17:43:36;;;;;;;9.48;6.88;;;;;;;;;;4970603;28;20202;-76
2021/11/11 17:46:11;;;;;;;6.45;5.88;;;;;;;;;;4967826;28;20198;-75
2021/11/11 17:48:43;;;;;;;8.15;6.10;;;;;;;;;;4954218;28;20200;-76
2021/11/11 17:51:15;;;;;;;7.32;5.22;;;;;;;;;;4953475;28;20194;-75
2021/11/11 17:53:42;;;;;;;8.82;5.40;;;;;;;;;;4967913;28;20730;-75
2021/11/11 17:56:09;;;;;;;7.78;5.90;;;;;;;;;;4972480;28;20305;-75
2021/11/11 17:58:38;;;;;;;8.60;5.30;;;;;;;;;;4971976;28;20197;-76